San Antonio, Valles Caldera, New Mexico Weather observations

Data are for 10 minute period ending at time listed.
 Day   Time   Solar   Ave.   Ave.  Ave.  Vector  Max.   Baro.   Total    
  of    of     Rad.   Air    Rel.  Wind   Wind   Wind  Press.  Precip.   
Year   Day            Temp.  Hum.  Speed  Dir.   Gust                    
2017   (MST)  Kw/m2    F      %     mph   deg.    mph    mb.     in.     
-------------------------------------------------------------------------
  23    6:30   0.00   26.1    78    3.9   351     6.0   99999.0    0.00 
  23    6:40   0.00   26.2    78    3.6   352     6.0   99999.0    0.00 
  23    6:50   0.00   26.2    78    3.9   343     6.6   99999.0    0.01 
  23    7:00   0.00   26.4    78    4.2   346     7.2   99999.0    0.07 
  23    7:10   0.00   26.5    79    4.3   336     7.2   99999.0    0.00 
  23    7:20   0.00   26.8    78    4.5   335     7.2   99999.0    0.03 
  23    7:30   0.00   27.1    78    4.5   338     7.2   99999.0    0.00 
  23    7:40   0.01   27.4    77    3.9   345     5.4   99999.0    0.00 
  23    7:50   0.01   27.5    77    3.4   350     6.0   99999.0    0.11 
  23    8:00   0.01   27.9    77    4.1   352     9.0   99999.0    0.00 
  23    8:10   0.02   28.4    75    3.8   336     6.0   99999.0    0.00 
  23    8:20   0.02   28.8    74    3.8   344     6.0   99999.0    0.00 
  23    8:30   0.03   29.3    73    3.5   335     6.0   99999.0    0.00 
  23    8:40   0.03   29.0    74    2.2   301     4.8   99999.0    0.00 
  23    8:50   0.03   29.6    73    2.8   345     5.4   99999.0    0.00 
  23    9:00   0.04   28.6    76    2.4   303     6.0   99999.0    0.21 
  23    9:10   0.04   27.3    79    0.7    87     2.4   99999.0    0.03 
  23    9:20   0.05   27.9    78    2.8   149     6.0   99999.0    0.00 
  23    9:30   0.05   28.9    76    2.5    64     5.4   99999.0    0.00 
  23    9:40   0.05   29.5    76    3.3   304     6.6   99999.0    0.00 
  23    9:50   0.07   30.5    75    6.3   324     9.6   99999.0    0.00 
  23   10:00   0.09   31.6    74    5.9   338     8.4   99999.0    0.00 
  23   10:10   0.09   32.1    73    5.3   346     9.6   99999.0    0.00 
  23   10:20   0.08   31.8    74    6.5   341    10.2   99999.0    0.00 
  23   10:30   0.09   32.2    73    5.4   341     9.6   99999.0    0.00 
  23   10:40   0.11   33.0    72    6.4   341    10.2   99999.0    0.00 
  23   10:50   0.14   34.1    70    6.5   345    10.8   99999.0    0.00 
  23   11:00   0.12   34.5    69    6.2   345    10.8   99999.0    0.00 
  23   11:10   0.17   35.2    67    6.1   327    11.3   99999.0    0.00 
  23   11:20   0.20   36.7    64    5.9   336     9.6   99999.0    0.00 
  23   11:30   0.28   38.0    60    5.6   318    10.8   99999.0    0.00 
  23   11:40   0.29   39.6    57    6.4   322    13.7   99999.0    0.00 
  23   11:50   0.26   37.8    61    6.5   328    16.1   99999.0    0.00 
  23   12:00   0.39   37.0    62    6.7   306    16.7   99999.0    0.00 
  23   12:10   0.35   37.7    60    6.1   284    12.5   99999.0    0.00 
  23   12:20   0.49   38.8    59    5.1   298    10.2   99999.0    0.00 
  23   12:30   0.47   37.0    62    7.4   251    15.5   99999.0    0.00 
  23   12:40   0.31   35.3    65    9.6   245    14.9   99999.0    0.00 
  23   12:50   0.37   34.5    68    8.5   240    15.5   99999.0    0.00 
  23   13:00   0.44   35.9    63    7.1   232    16.1   99999.0    0.00 
  23   13:10   0.59   35.8    63    8.3   214    14.9   99999.0    0.00 
  23   13:20   0.49   36.3    62    7.0   188    14.9   99999.0    0.00 
  23   13:30   0.47   36.4    63    6.5   187    10.8   99999.0    0.00 
  23   13:40   0.27   36.2    63    7.4   168    15.5   99999.0    0.00 
  23   13:50   0.20   34.9    67    8.9   173    18.5   99999.0    0.00 
  23   14:00   0.23   34.8    68    8.9   180    15.5   99999.0    0.00 
  23   14:10   0.17   34.7    70    7.0   195    17.3   99999.0    0.00 
  23   14:20   0.17   35.0    69    4.7   209    10.8   99999.0    0.00 
  23   14:30   0.32   35.6    69    5.6   184    16.7   99999.0    0.00 
  23   14:40   0.13   35.2    70    5.6   195    19.7   99999.0    0.00 
  23   14:50   0.15   34.6    72    5.5   192     9.6   99999.0    0.00 
  23   15:00   0.22   35.4    71    3.7   190     7.2   99999.0    0.00 
  23   15:10   0.19   37.7    65    3.8   352     8.4   99999.0    0.00 
  23   15:20   0.14   39.1    62    3.1    13     6.0   99999.0    0.00 
  23   15:30   0.11   37.2    62   10.1   302    28.6   99999.0    0.00 
  23   15:40   0.13   37.0    58   16.4   266    24.5   99999.0    0.00 
  23   15:50   0.14   37.6    56   10.4   277    19.7   99999.0    0.00 
  23   16:00   0.08   37.2    58   11.2   257    16.7   99999.0    0.00 
  23   16:10   0.05   36.9    59    7.6   241    11.3   99999.0    0.00 
  23   16:20   0.05   36.9    59    6.3   234    13.1   99999.0    0.00 
  23   16:30   0.03   37.0    59    6.5   248    14.9   99999.0    0.00 
  23   16:40   0.02   36.7    60    9.2   287    19.1   99999.0    0.00 
  23   16:50   0.02   36.3    63   10.7   281    19.7   99999.0    0.00 
  23   17:00   0.03   36.0    65    7.9   288    13.7   99999.0    0.00 
  23   17:10   0.04   36.2    65   11.5   277    20.9   99999.0    0.00 
  23   17:20   0.02   35.2    63   12.7   257    20.3   99999.0    0.00 
  23   17:30   0.00   34.5    61   10.7   260    17.3   99999.0    0.00 
  23   17:40   0.00   34.3    61   10.5   265    21.5   99999.0    0.00 
  23   17:50   0.00   34.2    62    9.2   264    13.7   99999.0    0.00 
  23   18:00   0.00   34.4    61   10.0   237    17.3   99999.0    0.00 
  23   18:10   0.00   33.9    64   13.6   263    22.1   99999.0    0.00 
  23   18:20   0.00   33.3    65   12.1   263    21.5   99999.0    0.00 
  23   18:30   0.00   33.0    64    7.7   251    14.3   99999.0    0.00 
  23   18:40   0.00   33.4    61    7.8   246    14.3   99999.0    0.00 
  23   18:50   0.00   33.1    62    6.6   260    10.8   99999.0    0.00 
  23   19:00   0.00   33.1    61    7.0   259    14.3   99999.0    0.00 
  23   19:10   0.00   32.8    62    8.2   263    13.1   99999.0    0.00 
  23   19:20   0.00   32.8    62    8.6   257    18.5   99999.0    0.00 
  23   19:30   0.00   32.6    63    6.7   259    11.3   99999.0    0.00 
  23   19:40   0.00   32.8    62    8.6   253    16.7   99999.0    0.00 
  23   19:50   0.00   33.0    61    7.1   222    13.1   99999.0    0.00 
  23   20:00   0.00   33.1    61    6.6   242    14.3   99999.0    0.00 
  23   20:10   0.00   33.0    62    6.3   219    12.5   99999.0    0.00 
  23   20:20   0.00   32.9    63    6.0   233    14.3   99999.0    0.00 
  23   20:30   0.00   32.4    66    9.7   240    25.6   99999.0    0.00 
  23   20:40   0.00   31.6    72   10.0   264    17.3   99999.0    0.00 
  23   20:50   0.00   31.4    73    4.9   297    11.3   99999.0    0.00 
  23   21:00   0.00   31.8    70    6.5   223    16.7   99999.0    0.00 
  23   21:10   0.00   31.6    73    8.0   258    17.3   99999.0    0.00 
  23   21:20   0.00   30.7    81   11.5   274    17.3   99999.0    0.00 
  23   21:30   0.00   29.0    89    9.0   284    15.5   99999.0    0.00 
  23   21:40   0.00   28.2    93    8.0   275    12.5   99999.0    0.00 
  23   21:50   0.00   28.1    94    7.7   278    11.3   99999.0    0.00 
  23   22:00   0.00   28.1    94   11.9   298    19.1   99999.0    0.00 
  23   22:10   0.00   27.6    94   15.4   272    23.9   99999.0    0.00 
  23   22:20   0.00   26.8    94   16.7   277    25.0   99999.0    0.00 
  23   22:30   0.00   26.2    94   11.2   293    16.7   99999.0    0.00 
  23   22:40   0.00   26.0    94    9.3   292    17.3   99999.0    0.00 
  23   22:50   0.00   25.9    94    9.1   297    13.7   99999.0    0.00 
  23   23:00   0.00   25.8    94    8.8   296    13.1   99999.0    0.00 
  23   23:10   0.00   25.7    94    5.9   302     9.6   99999.0    0.00 
  23   23:20   0.00   25.6    94    4.9   290     7.8   99999.0    0.00 
  23   23:30   0.00   25.4    94    5.8   297     9.0   99999.0    0.00 
  23   23:40   0.00   25.4    94    8.4   310    18.5   99999.0    0.00 
  23   23:50   0.00   24.6    93   11.0   303    23.3   99999.0    0.00 
  24    0:00   0.00   24.0    92    8.2   286    13.1   99999.0    0.00 
  24    0:10   0.00   23.6    93    5.0   303     9.6   99999.0    0.00 
  24    0:20   0.00   23.3    93    4.9   282     9.0   99999.0    0.00 
  24    0:30   0.00   23.0    93    5.9   262    11.3   99999.0    0.00 
  24    0:40   0.00   22.7    93    3.5   263     6.0   99999.0    0.00 
  24    0:50   0.00   22.6    94    3.9   266     7.2   99999.0    0.00 
  24    1:00   0.00   22.5    94    2.5   283     4.8   99999.0    0.00 
  24    1:10   0.00   22.5    94    4.0   266     6.0   99999.0    0.00 
  24    1:20   0.00   22.4    94    2.6   280     4.8   99999.0    0.00 
  24    1:30   0.00   22.3    94    2.3   280     4.2   99999.0    0.00 
  24    1:40   0.00   22.1    94    4.0   266     6.0   99999.0    0.00 
  24    1:50   0.00   21.9    94    3.2   271     4.2   99999.0    0.00 
  24    2:00   0.00   21.9    94    1.7   278     4.2   99999.0    0.00 
  24    2:10   0.00   21.9    94    1.9   287     4.8   99999.0    0.00 
  24    2:20   0.00   21.9    93    1.5   312     4.8   99999.0    0.00 
  24    2:30   0.00   21.7    93    4.1   286     6.6   99999.0    0.00 
  24    2:40   0.00   21.7    93    4.3   302     7.8   99999.0    0.00 
  24    2:50   0.00   21.7    93    6.6   302    10.2   99999.0    0.00 
  24    3:00   0.00   21.7    93    6.7   310    10.2   99999.0    0.00 
  24    3:10   0.00   21.6    92    7.8   302    13.1   99999.0    0.00 
  24    3:20   0.00   21.5    92    6.0   300     9.6   99999.0    0.00 
  24    3:30   0.00   21.4    92    4.2   300     6.6   99999.0    0.00 
  24    3:40   0.00   21.3    92    4.3   282     8.4   99999.0    0.00 
  24    3:50   0.00   21.1    92    5.0   277     7.8   99999.0    0.00 
  24    4:00   0.00   21.0    92    6.4   296    10.2   99999.0    0.00 
  24    4:10   0.00   21.0    92    6.6   300    10.2   99999.0    0.00 
  24    4:20   0.00   21.0    92    3.4   286     6.0   99999.0    0.00 
  24    4:30   0.00   20.9    92    2.6   307     4.2   99999.0    0.00 
  24    4:40   0.00   20.8    93    3.0   295     4.8   99999.0    0.00 
  24    4:50   0.00   20.8    93    3.5   290     6.0   99999.0    0.00 
  24    5:00   0.00   20.7    93    4.1   294     6.6   99999.0    0.00 
  24    5:10   0.00   20.8    93    2.0   303     4.2   99999.0    0.00 
  24    5:20   0.00   20.8    93    3.4   290    11.3   99999.0    0.00 
  24    5:30   0.00   20.9    93    5.6   307    10.8   99999.0    0.00 
  24    5:40   0.00   20.9    92    9.7   286    16.7   99999.0    0.00 
  24    5:50   0.00   20.7    92   10.6   284    15.5   99999.0    0.00 
  24    6:00   0.00   20.7    91    9.8   292    16.1   99999.0    0.00 
  24    6:10   0.00   20.8    91   11.6   284    16.7   99999.0    0.00 
  24    6:20   0.00   20.5    90    8.6   281    14.3   99999.0    0.00 

Return to San Antonio, Valles Caldera graphs page.


Western Regional Climate Center,wrcc@dri.edu